sensor_id;sensor_type;location;lat;lon;timestamp;P1;durP1;ratioP1;P2;durP2;ratioP2
66946;SDS011;53853;51.982;5.928;2024-02-26T00:01:31;3.50;;;2.40;;
66946;SDS011;53853;51.982;5.928;2024-02-26T00:04:02;4.10;;;2.92;;
66946;SDS011;53853;51.982;5.928;2024-02-26T00:06:32;4.60;;;2.80;;
66946;SDS011;53853;51.982;5.928;2024-02-26T00:09:02;3.40;;;2.85;;
66946;SDS011;53853;51.982;5.928;2024-02-26T00:11:33;3.30;;;2.55;;
66946;SDS011;53853;51.982;5.928;2024-02-26T00:14:06;3.67;;;2.67;;
66946;SDS011;53853;51.982;5.928;2024-02-26T00:16:36;2.97;;;2.30;;
66946;SDS011;53853;51.982;5.928;2024-02-26T00:19:08;4.18;;;2.97;;
66946;SDS011;53853;51.982;5.928;2024-02-26T00:21:40;5.38;;;2.85;;
66946;SDS011;53853;51.982;5.928;2024-02-26T00:24:11;4.43;;;3.45;;
66946;SDS011;53853;51.982;5.928;2024-02-26T00:26:41;5.68;;;3.13;;
66946;SDS011;53853;51.982;5.928;2024-02-26T00:29:13;5.25;;;3.45;;
66946;SDS011;53853;51.982;5.928;2024-02-26T00:31:43;5.10;;;3.63;;
66946;SDS011;53853;51.982;5.928;2024-02-26T00:34:13;3.60;;;2.97;;
66946;SDS011;53853;51.982;5.928;2024-02-26T00:36:43;4.93;;;3.00;;
66946;SDS011;53853;51.982;5.928;2024-02-26T00:39:13;3.88;;;2.83;;
66946;SDS011;53853;51.982;5.928;2024-02-26T00:41:43;3.72;;;3.00;;
66946;SDS011;53853;51.982;5.928;2024-02-26T00:44:15;6.18;;;3.72;;
66946;SDS011;53853;51.982;5.928;2024-02-26T00:46:45;4.43;;;3.72;;
66946;SDS011;53853;51.982;5.928;2024-02-26T00:49:15;5.30;;;4.03;;
66946;SDS011;53853;51.982;5.928;2024-02-26T00:51:45;5.45;;;3.38;;
66946;SDS011;53853;51.982;5.928;2024-02-26T00:54:15;4.15;;;3.50;;
66946;SDS011;53853;51.982;5.928;2024-02-26T00:56:45;4.20;;;3.05;;
66946;SDS011;53853;51.982;5.928;2024-02-26T00:59:17;4.95;;;3.67;;
66946;SDS011;53853;51.982;5.928;2024-02-26T01:01:47;4.30;;;3.60;;
66946;SDS011;53853;51.982;5.928;2024-02-26T01:04:17;5.78;;;3.00;;
66946;SDS011;53853;51.982;5.928;2024-02-26T01:06:47;4.50;;;2.35;;
66946;SDS011;53853;51.982;5.928;2024-02-26T01:09:17;6.93;;;3.55;;
66946;SDS011;53853;51.982;5.928;2024-02-26T01:11:46;5.47;;;3.67;;
66946;SDS011;53853;51.982;5.928;2024-02-26T01:14:19;3.85;;;2.92;;
66946;SDS011;53853;51.982;5.928;2024-02-26T01:16:49;4.20;;;3.20;;
66946;SDS011;53853;51.982;5.928;2024-02-26T01:19:19;3.92;;;2.88;;
66946;SDS011;53853;51.982;5.928;2024-02-26T01:21:49;7.13;;;4.10;;
66946;SDS011;53853;51.982;5.928;2024-02-26T01:24:19;4.07;;;2.90;;
66946;SDS011;53853;51.982;5.928;2024-02-26T01:26:49;3.50;;;2.28;;
66946;SDS011;53853;51.982;5.928;2024-02-26T01:29:21;3.63;;;2.65;;
66946;SDS011;53853;51.982;5.928;2024-02-26T01:31:51;4.22;;;3.03;;
66946;SDS011;53853;51.982;5.928;2024-02-26T01:34:21;4.45;;;3.05;;
66946;SDS011;53853;51.982;5.928;2024-02-26T01:36:51;4.07;;;2.63;;
66946;SDS011;53853;51.982;5.928;2024-02-26T01:39:21;4.93;;;2.53;;
66946;SDS011;53853;51.982;5.928;2024-02-26T01:41:51;4.68;;;3.30;;
66946;SDS011;53853;51.982;5.928;2024-02-26T01:44:24;2.60;;;2.15;;
66946;SDS011;53853;51.982;5.928;2024-02-26T01:49:27;3.60;;;2.75;;
66946;SDS011;53853;51.982;5.928;2024-02-26T01:51:57;4.07;;;2.65;;
66946;SDS011;53853;51.982;5.928;2024-02-26T01:54:28;3.10;;;2.33;;
66946;SDS011;53853;51.982;5.928;2024-02-26T01:56:59;2.92;;;2.40;;
66946;SDS011;53853;51.982;5.928;2024-02-26T01:59:32;2.97;;;2.53;;
66946;SDS011;53853;51.982;5.928;2024-02-26T02:02:03;3.35;;;2.55;;
66946;SDS011;53853;51.982;5.928;2024-02-26T02:04:36;3.00;;;2.30;;
66946;SDS011;53853;51.982;5.928;2024-02-26T02:07:07;3.85;;;2.88;;
66946;SDS011;53853;51.982;5.928;2024-02-26T02:12:21;5.30;;;3.33;;
66946;SDS011;53853;51.982;5.928;2024-02-26T02:14:53;4.20;;;3.30;;
66946;SDS011;53853;51.982;5.928;2024-02-26T02:17:23;4.50;;;3.17;;
66946;SDS011;53853;51.982;5.928;2024-02-26T02:19:54;4.70;;;3.53;;
66946;SDS011;53853;51.982;5.928;2024-02-26T02:22:27;3.60;;;3.17;;
66946;SDS011;53853;51.982;5.928;2024-02-26T02:24:57;5.15;;;3.42;;
66946;SDS011;53853;51.982;5.928;2024-02-26T02:27:27;5.60;;;3.88;;
66946;SDS011;53853;51.982;5.928;2024-02-26T02:29:58;4.40;;;3.58;;
66946;SDS011;53853;51.982;5.928;2024-02-26T02:32:28;4.45;;;3.75;;
66946;SDS011;53853;51.982;5.928;2024-02-26T02:34:58;5.00;;;4.05;;
66946;SDS011;53853;51.982;5.928;2024-02-26T02:37:32;5.00;;;3.55;;
66946;SDS011;53853;51.982;5.928;2024-02-26T02:40:03;4.45;;;3.97;;
66946;SDS011;53853;51.982;5.928;2024-02-26T02:42:33;3.90;;;3.03;;
66946;SDS011;53853;51.982;5.928;2024-02-26T02:45:04;5.03;;;3.50;;
66946;SDS011;53853;51.982;5.928;2024-02-26T02:47:35;4.63;;;3.70;;
66946;SDS011;53853;51.982;5.928;2024-02-26T02:50:06;4.32;;;3.38;;
66946;SDS011;53853;51.982;5.928;2024-02-26T02:52:39;4.82;;;3.65;;
66946;SDS011;53853;51.982;5.928;2024-02-26T02:55:09;3.97;;;3.58;;
66946;SDS011;53853;51.982;5.928;2024-02-26T02:57:39;5.47;;;3.83;;
66946;SDS011;53853;51.982;5.928;2024-02-26T03:00:11;4.80;;;3.50;;
66946;SDS011;53853;51.982;5.928;2024-02-26T03:02:41;4.88;;;4.03;;
66946;SDS011;53853;51.982;5.928;2024-02-26T03:05:12;5.20;;;3.72;;
66946;SDS011;53853;51.982;5.928;2024-02-26T03:07:44;4.75;;;3.28;;
66946;SDS011;53853;51.982;5.928;2024-02-26T03:10:14;5.07;;;3.03;;
66946;SDS011;53853;51.982;5.928;2024-02-26T03:12:45;5.50;;;3.40;;
66946;SDS011;53853;51.982;5.928;2024-02-26T03:15:15;3.60;;;2.60;;
66946;SDS011;53853;51.982;5.928;2024-02-26T03:17:45;4.55;;;3.28;;
66946;SDS011;53853;51.982;5.928;2024-02-26T03:20:15;4.05;;;3.13;;
66946;SDS011;53853;51.982;5.928;2024-02-26T03:22:47;4.90;;;3.38;;
66946;SDS011;53853;51.982;5.928;2024-02-26T03:25:17;3.28;;;2.65;;
66946;SDS011;53853;51.982;5.928;2024-02-26T03:27:47;3.55;;;2.80;;
66946;SDS011;53853;51.982;5.928;2024-02-26T03:30:17;4.57;;;4.00;;
66946;SDS011;53853;51.982;5.928;2024-02-26T03:32:47;3.95;;;3.45;;
66946;SDS011;53853;51.982;5.928;2024-02-26T03:35:17;5.57;;;3.63;;
66946;SDS011;53853;51.982;5.928;2024-02-26T03:37:49;4.40;;;3.00;;
66946;SDS011;53853;51.982;5.928;2024-02-26T03:40:19;3.80;;;3.33;;
66946;SDS011;53853;51.982;5.928;2024-02-26T03:42:50;4.03;;;3.45;;
66946;SDS011;53853;51.982;5.928;2024-02-26T03:45:20;6.10;;;3.88;;
66946;SDS011;53853;51.982;5.928;2024-02-26T03:47:51;5.25;;;4.05;;
66946;SDS011;53853;51.982;5.928;2024-02-26T03:50:21;5.93;;;4.00;;
66946;SDS011;53853;51.982;5.928;2024-02-26T03:52:53;5.45;;;4.30;;
66946;SDS011;53853;51.982;5.928;2024-02-26T03:55:23;4.68;;;3.97;;
66946;SDS011;53853;51.982;5.928;2024-02-26T03:57:53;4.43;;;3.45;;
66946;SDS011;53853;51.982;5.928;2024-02-26T04:00:23;4.35;;;3.50;;
66946;SDS011;53853;51.982;5.928;2024-02-26T04:02:54;4.40;;;3.50;;
66946;SDS011;53853;51.982;5.928;2024-02-26T04:05:24;4.40;;;3.50;;
66946;SDS011;53853;51.982;5.928;2024-02-26T04:07:57;4.47;;;3.85;;
66946;SDS011;53853;51.982;5.928;2024-02-26T04:10:26;4.07;;;3.67;;
66946;SDS011;53853;51.982;5.928;2024-02-26T04:12:56;4.68;;;3.30;;
66946;SDS011;53853;51.982;5.928;2024-02-26T04:15:26;5.32;;;3.30;;
66946;SDS011;53853;51.982;5.928;2024-02-26T04:17:56;4.53;;;3.72;;
66946;SDS011;53853;51.982;5.928;2024-02-26T04:20:26;5.45;;;3.92;;
66946;SDS011;53853;51.982;5.928;2024-02-26T04:22:58;4.50;;;3.92;;
66946;SDS011;53853;51.982;5.928;2024-02-26T04:25:28;4.90;;;4.03;;
66946;SDS011;53853;51.982;5.928;2024-02-26T04:27:58;4.22;;;3.83;;
66946;SDS011;53853;51.982;5.928;2024-02-26T04:30:28;4.47;;;3.92;;
66946;SDS011;53853;51.982;5.928;2024-02-26T04:32:58;7.40;;;5.35;;
66946;SDS011;53853;51.982;5.928;2024-02-26T04:35:28;4.30;;;3.88;;
66946;SDS011;53853;51.982;5.928;2024-02-26T04:38:00;5.53;;;4.60;;
66946;SDS011;53853;51.982;5.928;2024-02-26T04:40:30;5.50;;;4.50;;
66946;SDS011;53853;51.982;5.928;2024-02-26T04:43:00;6.05;;;5.30;;
66946;SDS011;53853;51.982;5.928;2024-02-26T04:45:30;7.28;;;4.38;;
66946;SDS011;53853;51.982;5.928;2024-02-26T04:48:00;4.32;;;3.92;;
66946;SDS011;53853;51.982;5.928;2024-02-26T04:50:30;6.32;;;4.47;;
66946;SDS011;53853;51.982;5.928;2024-02-26T04:53:03;5.10;;;4.32;;
66946;SDS011;53853;51.982;5.928;2024-02-26T04:55:34;5.22;;;4.30;;
66946;SDS011;53853;51.982;5.928;2024-02-26T04:58:04;5.90;;;5.30;;
66946;SDS011;53853;51.982;5.928;2024-02-26T05:00:33;6.40;;;4.93;;
66946;SDS011;53853;51.982;5.928;2024-02-26T05:03:01;6.03;;;4.72;;
66946;SDS011;53853;51.982;5.928;2024-02-26T05:05:31;7.13;;;6.13;;
66946;SDS011;53853;51.982;5.928;2024-02-26T05:08:03;6.60;;;5.22;;
66946;SDS011;53853;51.982;5.928;2024-02-26T05:10:33;6.22;;;5.03;;
66946;SDS011;53853;51.982;5.928;2024-02-26T05:13:06;5.63;;;4.70;;
66946;SDS011;53853;51.982;5.928;2024-02-26T05:15:36;5.10;;;4.40;;
66946;SDS011;53853;51.982;5.928;2024-02-26T05:18:06;6.70;;;4.10;;
66946;SDS011;53853;51.982;5.928;2024-02-26T05:20:36;5.47;;;4.55;;
66946;SDS011;53853;51.982;5.928;2024-02-26T05:23:08;5.65;;;4.68;;
66946;SDS011;53853;51.982;5.928;2024-02-26T05:25:38;6.57;;;4.45;;
66946;SDS011;53853;51.982;5.928;2024-02-26T05:28:11;6.35;;;4.85;;
66946;SDS011;53853;51.982;5.928;2024-02-26T05:30:41;5.72;;;5.07;;
66946;SDS011;53853;51.982;5.928;2024-02-26T05:33:11;6.38;;;4.82;;
66946;SDS011;53853;51.982;5.928;2024-02-26T05:35:41;6.30;;;4.88;;
66946;SDS011;53853;51.982;5.928;2024-02-26T05:38:13;6.45;;;5.45;;
66946;SDS011;53853;51.982;5.928;2024-02-26T05:40:43;6.68;;;4.95;;
66946;SDS011;53853;51.982;5.928;2024-02-26T05:43:13;5.85;;;4.75;;
66946;SDS011;53853;51.982;5.928;2024-02-26T05:45:44;6.88;;;5.15;;
66946;SDS011;53853;51.982;5.928;2024-02-26T05:48:13;7.60;;;5.10;;
66946;SDS011;53853;51.982;5.928;2024-02-26T05:50:45;8.15;;;5.35;;
66946;SDS011;53853;51.982;5.928;2024-02-26T05:53:17;6.18;;;5.00;;
66946;SDS011;53853;51.982;5.928;2024-02-26T05:55:47;6.25;;;5.22;;
66946;SDS011;53853;51.982;5.928;2024-02-26T05:58:17;6.15;;;5.43;;
66946;SDS011;53853;51.982;5.928;2024-02-26T06:00:47;6.82;;;5.68;;
66946;SDS011;53853;51.982;5.928;2024-02-26T06:03:17;6.13;;;5.50;;
66946;SDS011;53853;51.982;5.928;2024-02-26T06:05:47;5.07;;;4.55;;
66946;SDS011;53853;51.982;5.928;2024-02-26T06:08:19;6.07;;;5.38;;
66946;SDS011;53853;51.982;5.928;2024-02-26T06:10:49;7.32;;;5.13;;
66946;SDS011;53853;51.982;5.928;2024-02-26T06:13:19;5.28;;;4.55;;
66946;SDS011;53853;51.982;5.928;2024-02-26T06:15:49;5.65;;;4.40;;
66946;SDS011;53853;51.982;5.928;2024-02-26T06:18:19;6.55;;;4.78;;
66946;SDS011;53853;51.982;5.928;2024-02-26T06:20:48;6.38;;;5.15;;
66946;SDS011;53853;51.982;5.928;2024-02-26T06:23:21;5.82;;;4.68;;
66946;SDS011;53853;51.982;5.928;2024-02-26T06:25:51;5.70;;;4.78;;
66946;SDS011;53853;51.982;5.928;2024-02-26T06:28:21;5.95;;;4.93;;
66946;SDS011;53853;51.982;5.928;2024-02-26T06:30:51;5.95;;;5.15;;
66946;SDS011;53853;51.982;5.928;2024-02-26T06:33:21;7.25;;;4.70;;
66946;SDS011;53853;51.982;5.928;2024-02-26T06:35:51;6.30;;;5.00;;
66946;SDS011;53853;51.982;5.928;2024-02-26T06:38:23;4.85;;;4.35;;
66946;SDS011;53853;51.982;5.928;2024-02-26T06:40:53;6.78;;;5.47;;
66946;SDS011;53853;51.982;5.928;2024-02-26T06:43:23;5.85;;;4.78;;
66946;SDS011;53853;51.982;5.928;2024-02-26T06:45:53;7.50;;;5.38;;
66946;SDS011;53853;51.982;5.928;2024-02-26T06:48:23;6.63;;;4.85;;
66946;SDS011;53853;51.982;5.928;2024-02-26T06:50:53;5.72;;;5.15;;
66946;SDS011;53853;51.982;5.928;2024-02-26T06:53:25;6.95;;;5.47;;
66946;SDS011;53853;51.982;5.928;2024-02-26T06:55:55;6.32;;;5.30;;
66946;SDS011;53853;51.982;5.928;2024-02-26T06:58:25;6.07;;;5.47;;
66946;SDS011;53853;51.982;5.928;2024-02-26T07:00:55;7.50;;;6.35;;
66946;SDS011;53853;51.982;5.928;2024-02-26T07:03:25;7.43;;;6.25;;
66946;SDS011;53853;51.982;5.928;2024-02-26T07:05:56;6.68;;;6.00;;
66946;SDS011;53853;51.982;5.928;2024-02-26T07:08:28;7.65;;;5.85;;
66946;SDS011;53853;51.982;5.928;2024-02-26T07:10:58;7.45;;;6.45;;
66946;SDS011;53853;51.982;5.928;2024-02-26T07:13:28;7.95;;;6.15;;
66946;SDS011;53853;51.982;5.928;2024-02-26T07:15:58;6.53;;;5.63;;
66946;SDS011;53853;51.982;5.928;2024-02-26T07:18:28;7.22;;;6.53;;
66946;SDS011;53853;51.982;5.928;2024-02-26T07:20:57;8.73;;;7.47;;
66946;SDS011;53853;51.982;5.928;2024-02-26T07:23:32;8.73;;;7.03;;
66946;SDS011;53853;51.982;5.928;2024-02-26T07:26:02;9.13;;;7.22;;
66946;SDS011;53853;51.982;5.928;2024-02-26T07:28:34;10.23;;;7.70;;
66946;SDS011;53853;51.982;5.928;2024-02-26T07:31:03;7.45;;;6.30;;
66946;SDS011;53853;51.982;5.928;2024-02-26T07:33:33;8.40;;;7.32;;
66946;SDS011;53853;51.982;5.928;2024-02-26T07:36:03;8.63;;;7.72;;
66946;SDS011;53853;51.982;5.928;2024-02-26T07:38:36;8.45;;;6.95;;
66946;SDS011;53853;51.982;5.928;2024-02-26T07:41:06;10.93;;;8.48;;
66946;SDS011;53853;51.982;5.928;2024-02-26T07:43:36;10.55;;;8.32;;
66946;SDS011;53853;51.982;5.928;2024-02-26T07:46:06;9.45;;;7.90;;
66946;SDS011;53853;51.982;5.928;2024-02-26T07:48:39;10.55;;;8.80;;
66946;SDS011;53853;51.982;5.928;2024-02-26T07:51:11;10.32;;;8.52;;
66946;SDS011;53853;51.982;5.928;2024-02-26T07:53:45;11.17;;;9.80;;
66946;SDS011;53853;51.982;5.928;2024-02-26T07:56:15;9.93;;;8.93;;
66946;SDS011;53853;51.982;5.928;2024-02-26T07:58:45;11.68;;;9.48;;
66946;SDS011;53853;51.982;5.928;2024-02-26T08:01:15;12.55;;;9.85;;
66946;SDS011;53853;51.982;5.928;2024-02-26T08:03:44;11.48;;;10.27;;
66946;SDS011;53853;51.982;5.928;2024-02-26T08:06:16;11.38;;;10.18;;
66946;SDS011;53853;51.982;5.928;2024-02-26T08:08:48;13.43;;;10.93;;
66946;SDS011;53853;51.982;5.928;2024-02-26T08:11:18;14.38;;;11.48;;
66946;SDS011;53853;51.982;5.928;2024-02-26T08:13:48;13.25;;;11.27;;
66946;SDS011;53853;51.982;5.928;2024-02-26T08:16:18;12.63;;;10.15;;
66946;SDS011;53853;51.982;5.928;2024-02-26T08:18:48;12.32;;;10.88;;
66946;SDS011;53853;51.982;5.928;2024-02-26T08:21:18;15.20;;;12.05;;
66946;SDS011;53853;51.982;5.928;2024-02-26T08:23:50;13.93;;;11.32;;
66946;SDS011;53853;51.982;5.928;2024-02-26T08:26:20;13.30;;;11.30;;
66946;SDS011;53853;51.982;5.928;2024-02-26T08:28:50;13.75;;;11.05;;
66946;SDS011;53853;51.982;5.928;2024-02-26T08:31:21;16.55;;;12.02;;
66946;SDS011;53853;51.982;5.928;2024-02-26T08:33:53;16.70;;;13.13;;
66946;SDS011;53853;51.982;5.928;2024-02-26T08:36:24;14.02;;;12.07;;
66946;SDS011;53853;51.982;5.928;2024-02-26T08:38:56;14.90;;;11.30;;
66946;SDS011;53853;51.982;5.928;2024-02-26T08:41:26;13.18;;;11.18;;
66946;SDS011;53853;51.982;5.928;2024-02-26T08:43:56;14.65;;;11.32;;
66946;SDS011;53853;51.982;5.928;2024-02-26T08:46:26;15.52;;;11.88;;
66946;SDS011;53853;51.982;5.928;2024-02-26T08:48:56;15.50;;;11.95;;
66946;SDS011;53853;51.982;5.928;2024-02-26T08:51:26;14.05;;;12.50;;
66946;SDS011;53853;51.982;5.928;2024-02-26T08:53:58;15.18;;;11.65;;
66946;SDS011;53853;51.982;5.928;2024-02-26T08:56:28;14.80;;;12.05;;
66946;SDS011;53853;51.982;5.928;2024-02-26T08:58:58;16.02;;;12.32;;
66946;SDS011;53853;51.982;5.928;2024-02-26T09:01:29;16.73;;;13.38;;
66946;SDS011;53853;51.982;5.928;2024-02-26T09:03:59;18.95;;;13.48;;
66946;SDS011;53853;51.982;5.928;2024-02-26T09:06:29;17.15;;;13.45;;
66946;SDS011;53853;51.982;5.928;2024-02-26T09:09:02;19.75;;;14.27;;
66946;SDS011;53853;51.982;5.928;2024-02-26T09:11:32;16.50;;;13.32;;
66946;SDS011;53853;51.982;5.928;2024-02-26T09:14:02;21.35;;;14.52;;
66946;SDS011;53853;51.982;5.928;2024-02-26T09:16:32;18.67;;;14.35;;
66946;SDS011;53853;51.982;5.928;2024-02-26T09:19:01;18.65;;;13.23;;
66946;SDS011;53853;51.982;5.928;2024-02-26T09:21:31;16.77;;;12.52;;
66946;SDS011;53853;51.982;5.928;2024-02-26T09:24:04;18.35;;;13.10;;
66946;SDS011;53853;51.982;5.928;2024-02-26T09:26:34;16.95;;;12.68;;
66946;SDS011;53853;51.982;5.928;2024-02-26T09:29:04;18.60;;;14.13;;
66946;SDS011;53853;51.982;5.928;2024-02-26T09:31:36;15.27;;;12.27;;
66946;SDS011;53853;51.982;5.928;2024-02-26T09:34:07;17.10;;;13.25;;
66946;SDS011;53853;51.982;5.928;2024-02-26T09:36:36;19.50;;;14.10;;
66946;SDS011;53853;51.982;5.928;2024-02-26T09:39:09;20.80;;;14.70;;
66946;SDS011;53853;51.982;5.928;2024-02-26T09:41:40;17.20;;;13.25;;
66946;SDS011;53853;51.982;5.928;2024-02-26T09:44:10;16.45;;;13.30;;
66946;SDS011;53853;51.982;5.928;2024-02-26T09:46:42;16.50;;;12.95;;
66946;SDS011;53853;51.982;5.928;2024-02-26T09:49:13;18.83;;;14.40;;
66946;SDS011;53853;51.982;5.928;2024-02-26T09:51:47;17.60;;;13.63;;
66946;SDS011;53853;51.982;5.928;2024-02-26T09:54:22;17.42;;;12.93;;
66946;SDS011;53853;51.982;5.928;2024-02-26T09:59:25;17.55;;;12.25;;
66946;SDS011;53853;51.982;5.928;2024-02-26T10:01:57;19.20;;;12.45;;
66946;SDS011;53853;51.982;5.928;2024-02-26T10:04:28;18.02;;;14.00;;
66946;SDS011;53853;51.982;5.928;2024-02-26T10:07:00;14.80;;;12.05;;
66946;SDS011;53853;51.982;5.928;2024-02-26T10:09:36;17.73;;;13.38;;
66946;SDS011;53853;51.982;5.928;2024-02-26T10:12:07;18.25;;;13.18;;
66946;SDS011;53853;51.982;5.928;2024-02-26T10:14:39;13.13;;;10.95;;
66946;SDS011;53853;51.982;5.928;2024-02-26T10:17:09;15.57;;;11.85;;
66946;SDS011;53853;51.982;5.928;2024-02-26T10:19:38;13.77;;;11.02;;
66946;SDS011;53853;51.982;5.928;2024-02-26T10:22:08;14.35;;;12.35;;
66946;SDS011;53853;51.982;5.928;2024-02-26T10:24:41;14.90;;;11.18;;
66946;SDS011;53853;51.982;5.928;2024-02-26T10:27:11;13.85;;;12.07;;
66946;SDS011;53853;51.982;5.928;2024-02-26T10:29:41;12.93;;;10.88;;
66946;SDS011;53853;51.982;5.928;2024-02-26T10:32:12;14.60;;;11.48;;
66946;SDS011;53853;51.982;5.928;2024-02-26T10:34:43;14.60;;;11.80;;
66946;SDS011;53853;51.982;5.928;2024-02-26T10:37:14;17.30;;;12.20;;
66946;SDS011;53853;51.982;5.928;2024-02-26T10:39:48;13.85;;;10.88;;
66946;SDS011;53853;51.982;5.928;2024-02-26T10:42:18;12.10;;;10.35;;
66946;SDS011;53853;51.982;5.928;2024-02-26T10:44:48;14.20;;;11.43;;
66946;SDS011;53853;51.982;5.928;2024-02-26T10:47:18;14.05;;;10.65;;
66946;SDS011;53853;51.982;5.928;2024-02-26T10:49:49;16.77;;;12.15;;
66946;SDS011;53853;51.982;5.928;2024-02-26T10:52:20;13.07;;;10.38;;
66946;SDS011;53853;51.982;5.928;2024-02-26T10:54:55;14.85;;;11.20;;
66946;SDS011;53853;51.982;5.928;2024-02-26T10:57:29;13.85;;;11.82;;
66946;SDS011;53853;51.982;5.928;2024-02-26T11:00:03;14.43;;;11.43;;
66946;SDS011;53853;51.982;5.928;2024-02-26T11:02:40;17.05;;;12.50;;
66946;SDS011;53853;51.982;5.928;2024-02-26T11:05:13;13.98;;;10.45;;
66946;SDS011;53853;51.982;5.928;2024-02-26T11:07:44;13.43;;;11.30;;
66946;SDS011;53853;51.982;5.928;2024-02-26T11:10:18;15.85;;;12.57;;
66946;SDS011;53853;51.982;5.928;2024-02-26T11:12:48;14.43;;;11.48;;
66946;SDS011;53853;51.982;5.928;2024-02-26T11:15:19;12.85;;;10.30;;
66946;SDS011;53853;51.982;5.928;2024-02-26T11:17:50;16.50;;;12.93;;
66946;SDS011;53853;51.982;5.928;2024-02-26T11:20:21;15.35;;;13.02;;
66946;SDS011;53853;51.982;5.928;2024-02-26T11:22:54;15.63;;;12.07;;
66946;SDS011;53853;51.982;5.928;2024-02-26T11:25:27;15.88;;;12.98;;
66946;SDS011;53853;51.982;5.928;2024-02-26T11:27:58;13.73;;;11.52;;
66946;SDS011;53853;51.982;5.928;2024-02-26T11:30:33;14.25;;;11.52;;
66946;SDS011;53853;51.982;5.928;2024-02-26T11:33:06;15.05;;;12.13;;
66946;SDS011;53853;51.982;5.928;2024-02-26T11:35:38;13.85;;;10.45;;
66946;SDS011;53853;51.982;5.928;2024-02-26T11:38:08;12.90;;;10.85;;
66946;SDS011;53853;51.982;5.928;2024-02-26T11:40:50;11.95;;;10.10;;
66946;SDS011;53853;51.982;5.928;2024-02-26T11:43:23;12.43;;;9.43;;
66946;SDS011;53853;51.982;5.928;2024-02-26T11:46:27;16.67;;;11.45;;
66946;SDS011;53853;51.982;5.928;2024-02-26T11:48:59;12.65;;;10.32;;
66946;SDS011;53853;51.982;5.928;2024-02-26T11:51:32;14.73;;;10.73;;
66946;SDS011;53853;51.982;5.928;2024-02-26T11:54:03;12.10;;;9.30;;
66946;SDS011;53853;51.982;5.928;2024-02-26T11:56:40;11.88;;;10.13;;
66946;SDS011;53853;51.982;5.928;2024-02-26T11:59:10;11.30;;;9.30;;
66946;SDS011;53853;51.982;5.928;2024-02-26T12:01:41;12.93;;;9.90;;
66946;SDS011;53853;51.982;5.928;2024-02-26T12:04:14;11.07;;;9.27;;
66946;SDS011;53853;51.982;5.928;2024-02-26T12:06:55;12.95;;;9.77;;
66946;SDS011;53853;51.982;5.928;2024-02-26T12:09:33;11.77;;;10.40;;
66946;SDS011;53853;51.982;5.928;2024-02-26T12:12:07;10.93;;;9.10;;
66946;SDS011;53853;51.982;5.928;2024-02-26T12:14:37;9.55;;;8.25;;
66946;SDS011;53853;51.982;5.928;2024-02-26T12:17:19;13.30;;;9.52;;
66946;SDS011;53853;51.982;5.928;2024-02-26T12:19:50;10.50;;;9.40;;
66946;SDS011;53853;51.982;5.928;2024-02-26T12:22:21;10.48;;;8.02;;
66946;SDS011;53853;51.982;5.928;2024-02-26T12:24:57;10.95;;;8.32;;
66946;SDS011;53853;51.982;5.928;2024-02-26T12:27:31;10.90;;;9.00;;
66946;SDS011;53853;51.982;5.928;2024-02-26T12:30:01;9.20;;;7.30;;
66946;SDS011;53853;51.982;5.928;2024-02-26T12:32:32;9.60;;;7.57;;
66946;SDS011;53853;51.982;5.928;2024-02-26T12:35:03;12.32;;;7.85;;
66946;SDS011;53853;51.982;5.928;2024-02-26T12:37:35;14.07;;;8.20;;
66946;SDS011;53853;51.982;5.928;2024-02-26T12:40:05;11.40;;;8.73;;
66946;SDS011;53853;51.982;5.928;2024-02-26T12:42:40;8.95;;;7.65;;
66946;SDS011;53853;51.982;5.928;2024-02-26T12:45:10;9.82;;;7.38;;
66946;SDS011;53853;51.982;5.928;2024-02-26T12:47:42;10.73;;;8.20;;
66946;SDS011;53853;51.982;5.928;2024-02-26T12:50:13;9.55;;;7.22;;
66946;SDS011;53853;51.982;5.928;2024-02-26T12:52:44;9.98;;;7.53;;
66946;SDS011;53853;51.982;5.928;2024-02-26T12:55:15;8.68;;;7.47;;
66946;SDS011;53853;51.982;5.928;2024-02-26T12:57:49;11.07;;;7.35;;
66946;SDS011;53853;51.982;5.928;2024-02-26T13:00:22;11.93;;;8.32;;
66946;SDS011;53853;51.982;5.928;2024-02-26T13:02:54;8.77;;;7.43;;
66946;SDS011;53853;51.982;5.928;2024-02-26T13:05:24;14.25;;;9.30;;
66946;SDS011;53853;51.982;5.928;2024-02-26T13:07:55;10.02;;;7.55;;
66946;SDS011;53853;51.982;5.928;2024-02-26T13:10:25;9.48;;;7.95;;
66946;SDS011;53853;51.982;5.928;2024-02-26T13:12:57;10.20;;;8.80;;
66946;SDS011;53853;51.982;5.928;2024-02-26T13:15:30;9.65;;;7.68;;
66946;SDS011;53853;51.982;5.928;2024-02-26T13:18:00;10.13;;;8.60;;
66946;SDS011;53853;51.982;5.928;2024-02-26T13:20:39;9.95;;;8.25;;
66946;SDS011;53853;51.982;5.928;2024-02-26T13:23:11;11.27;;;8.75;;
66946;SDS011;53853;51.982;5.928;2024-02-26T13:25:41;10.23;;;9.10;;
66946;SDS011;53853;51.982;5.928;2024-02-26T13:28:15;9.25;;;7.55;;
66946;SDS011;53853;51.982;5.928;2024-02-26T13:30:50;9.23;;;7.97;;
66946;SDS011;53853;51.982;5.928;2024-02-26T13:33:18;8.60;;;7.35;;
66946;SDS011;53853;51.982;5.928;2024-02-26T13:35:49;10.02;;;8.43;;
66946;SDS011;53853;51.982;5.928;2024-02-26T13:38:19;9.32;;;8.32;;
66946;SDS011;53853;51.982;5.928;2024-02-26T13:40:49;9.95;;;8.88;;
66946;SDS011;53853;51.982;5.928;2024-02-26T13:43:22;11.45;;;8.02;;
66946;SDS011;53853;51.982;5.928;2024-02-26T13:45:52;10.23;;;8.20;;
66946;SDS011;53853;51.982;5.928;2024-02-26T13:48:22;10.20;;;8.75;;
66946;SDS011;53853;51.982;5.928;2024-02-26T13:50:51;11.73;;;9.77;;
66946;SDS011;53853;51.982;5.928;2024-02-26T13:53:21;9.75;;;7.72;;
66946;SDS011;53853;51.982;5.928;2024-02-26T13:55:51;9.32;;;8.05;;
66946;SDS011;53853;51.982;5.928;2024-02-26T13:58:25;9.48;;;8.35;;
66946;SDS011;53853;51.982;5.928;2024-02-26T14:00:55;12.65;;;8.95;;
66946;SDS011;53853;51.982;5.928;2024-02-26T14:03:25;9.00;;;7.90;;
66946;SDS011;53853;51.982;5.928;2024-02-26T14:05:55;9.65;;;8.50;;
66946;SDS011;53853;51.982;5.928;2024-02-26T14:08:25;12.40;;;8.95;;
66946;SDS011;53853;51.982;5.928;2024-02-26T14:10:55;10.73;;;9.18;;
66946;SDS011;53853;51.982;5.928;2024-02-26T14:13:28;10.20;;;8.95;;
66946;SDS011;53853;51.982;5.928;2024-02-26T14:15:58;9.77;;;8.77;;
66946;SDS011;53853;51.982;5.928;2024-02-26T14:18:28;8.93;;;8.02;;
66946;SDS011;53853;51.982;5.928;2024-02-26T14:20:58;9.18;;;7.95;;
66946;SDS011;53853;51.982;5.928;2024-02-26T14:23:28;9.55;;;8.55;;
66946;SDS011;53853;51.982;5.928;2024-02-26T14:25:55;12.18;;;9.63;;
66946;SDS011;53853;51.982;5.928;2024-02-26T14:28:28;11.95;;;8.60;;
66946;SDS011;53853;51.982;5.928;2024-02-26T14:31:00;10.95;;;8.32;;
66946;SDS011;53853;51.982;5.928;2024-02-26T14:33:31;10.27;;;8.35;;
66946;SDS011;53853;51.982;5.928;2024-02-26T14:36:01;9.88;;;8.35;;
66946;SDS011;53853;51.982;5.928;2024-02-26T14:38:31;9.00;;;7.60;;
66946;SDS011;53853;51.982;5.928;2024-02-26T14:41:01;10.98;;;8.85;;
66946;SDS011;53853;51.982;5.928;2024-02-26T14:43:35;10.77;;;9.05;;
66946;SDS011;53853;51.982;5.928;2024-02-26T14:46:04;9.70;;;8.70;;
66946;SDS011;53853;51.982;5.928;2024-02-26T14:48:34;10.43;;;8.77;;
66946;SDS011;53853;51.982;5.928;2024-02-26T14:51:06;8.95;;;7.78;;
66946;SDS011;53853;51.982;5.928;2024-02-26T14:53:35;9.93;;;7.18;;
66946;SDS011;53853;51.982;5.928;2024-02-26T14:56:05;10.30;;;7.55;;
66946;SDS011;53853;51.982;5.928;2024-02-26T14:58:38;8.52;;;7.50;;
66946;SDS011;53853;51.982;5.928;2024-02-26T15:01:08;9.15;;;7.15;;
66946;SDS011;53853;51.982;5.928;2024-02-26T15:03:38;9.95;;;7.40;;
66946;SDS011;53853;51.982;5.928;2024-02-26T15:06:07;10.95;;;8.35;;
66946;SDS011;53853;51.982;5.928;2024-02-26T15:08:37;10.32;;;8.05;;